Terminal Aerodrome Forecast
Issued by NWS

Home | Current Version | Previous Version | Text Only | Print | Product List | Glossary On
Versions: 1 2 3 4 5 6 7 8 9 10 11 12 13 14 15 16 17 18
000
FTAK31 PAJN 260540
TAFAWG
TAF
PAWG 260540Z 2606/2706 07006KT P6SM VCSH BKN050 BKN100
     FM261100 08007KT P6SM BKN050 OVC080
     FM262200 08010KT P6SM VCSH SCT050 BKN080 OVC100
      AMD LTD TO CLD VIS AND WIND 2606/2615=

USA.gov is the U.S. government's official web portal to all federal, state and local government web resources and services.